All Spectrum Aviation - Van Nuys Airport - KVNY

HOME

Condor Squadron KVNY Webcam

Visit our Electronics Store

Condor Squadron Webcam - Van Nuys Airport - KVNY
Picture taken: Fri, 13 Dec 2019 00:10:24 -0800
YouTube Channel!    Latest Timelapse Movie    Full Size Image    Regular Size Image    

2019/12/13 07:51 KVNY 130751Z AUTO 00000KT 8SM CLR 13/10 A3015 RMK AO2 SLP204 T01330100 402390089

HOME

Condor Squadron KVNY Webcam

Visit our Electronics Store